createdAt,value
2023-02-24T00:00:37.950Z,24.17
2023-02-24T00:03:11.731Z,24.03
2023-02-24T00:05:44.464Z,21.83
2023-02-24T00:08:12.525Z,23.53
2023-02-24T00:10:40.531Z,22.10
2023-02-24T00:13:08.711Z,17.50
2023-02-24T00:15:38.035Z,22.50
2023-02-24T00:18:07.223Z,20.53
2023-02-24T00:20:36.459Z,19.17
2023-02-24T00:23:05.020Z,19.80
2023-02-24T00:25:33.099Z,21.20
2023-02-24T00:28:01.795Z,19.27
2023-02-24T00:30:32.848Z,21.07
2023-02-24T00:33:03.728Z,23.10
2023-02-24T00:35:31.768Z,19.67
2023-02-24T00:37:59.807Z,20.53
2023-02-24T00:40:30.316Z,20.43
2023-02-24T00:42:59.202Z,22.30
2023-02-24T00:45:30.443Z,19.60
2023-02-24T00:47:58.434Z,20.07
2023-02-24T00:50:27.751Z,19.23
2023-02-24T00:52:55.729Z,18.97
2023-02-24T00:55:23.877Z,21.30
2023-02-24T00:57:51.916Z,19.53
2023-02-24T01:00:21.372Z,18.87
2023-02-24T01:02:49.393Z,21.33
2023-02-24T01:05:17.510Z,19.57
2023-02-24T01:07:46.992Z,18.27
2023-02-24T01:10:14.959Z,20.30
2023-02-24T01:12:50.792Z,18.50
2023-02-24T01:15:19.906Z,20.73
2023-02-24T01:17:48.253Z,18.20
2023-02-24T01:20:19.763Z,17.30
2023-02-24T01:22:50.879Z,17.10
2023-02-24T01:25:20.415Z,19.13
2023-02-24T01:27:48.692Z,18.00
2023-02-24T01:30:18.415Z,18.77
2023-02-24T01:32:48.038Z,18.43
2023-02-24T01:35:16.493Z,18.70
2023-02-24T01:37:45.435Z,17.97
2023-02-24T01:40:21.687Z,19.73
2023-02-24T01:42:50.807Z,17.70
2023-02-24T01:45:24.873Z,17.33
2023-02-24T01:47:53.993Z,17.50
2023-02-24T01:50:26.103Z,18.77
2023-02-24T01:52:58.829Z,18.47
2023-02-24T01:55:32.232Z,18.30
2023-02-24T01:58:04.952Z,20.83
2023-02-24T02:00:37.765Z,18.53
2023-02-24T02:03:15.383Z,18.57
2023-02-24T02:05:45.391Z,38.43
2023-02-24T02:08:15.013Z,39.47
2023-02-24T02:10:45.282Z,38.43
2023-02-24T02:13:15.040Z,39.90
2023-02-24T02:15:56.756Z,41.43
2023-02-24T02:18:34.514Z,43.40
2023-02-24T02:21:40.602Z,40.90
2023-02-24T02:24:32.467Z,39.50
2023-02-24T02:27:31.728Z,40.07
2023-02-24T02:30:36.507Z,38.17
2023-02-24T02:33:21.686Z,39.93
2023-02-24T02:36:00.597Z,37.70
2023-02-24T02:38:38.991Z,38.10
2023-02-24T02:41:17.778Z,38.40
2023-02-24T02:43:52.573Z,39.13
2023-02-24T02:46:34.901Z,15.67
2023-02-24T02:49:14.241Z,16.33
2023-02-24T02:51:51.694Z,15.73
2023-02-24T02:54:27.155Z,16.40
2023-02-24T02:57:01.413Z,16.17
2023-02-24T02:59:32.276Z,16.17
2023-02-24T03:02:11.839Z,16.47
2023-02-24T03:04:43.427Z,15.43
2023-02-24T03:07:15.505Z,15.70
2023-02-24T03:09:49.657Z,15.83
2023-02-24T03:12:21.449Z,16.83
2023-02-24T03:14:53.516Z,17.27
2023-02-24T03:17:25.759Z,15.27
2023-02-24T03:20:00.431Z,15.17
2023-02-24T03:22:35.478Z,16.17
2023-02-24T03:25:05.842Z,15.33
2023-02-24T03:27:42.845Z,37.53
2023-02-24T03:30:17.040Z,38.27
2023-02-24T03:32:56.134Z,36.90
2023-02-24T03:35:27.329Z,35.53
2023-02-24T03:37:59.467Z,34.90
2023-02-24T03:40:36.075Z,37.50
2023-02-24T03:43:07.652Z,35.03
2023-02-24T03:45:41.770Z,31.83
2023-02-24T03:48:12.951Z,33.20
2023-02-24T03:50:42.613Z,32.97
2023-02-24T03:53:31.146Z,33.97
2023-02-24T03:56:11.133Z,33.47
2023-02-24T03:58:47.816Z,32.00
2023-02-24T04:01:21.441Z,32.07
2023-02-24T04:04:02.677Z,33.40
2023-02-24T04:06:36.875Z,32.90
2023-02-24T04:09:13.272Z,30.20
2023-02-24T04:11:48.342Z,34.70
2023-02-24T04:14:25.108Z,31.60
2023-02-24T04:17:01.139Z,29.80
2023-02-24T04:19:33.375Z,34.67
2023-02-24T04:22:03.955Z,29.80
2023-02-24T04:24:34.799Z,29.67
2023-02-24T04:27:07.338Z,31.07
2023-02-24T04:29:40.423Z,31.00
2023-02-24T04:32:11.594Z,33.23
2023-02-24T04:34:40.438Z,33.87
2023-02-24T04:37:08.912Z,32.83
2023-02-24T04:39:38.927Z,32.27
2023-02-24T04:42:07.410Z,32.90
2023-02-24T04:44:35.694Z,34.33
2023-02-24T04:47:03.933Z,34.27
2023-02-24T04:49:31.946Z,34.27
2023-02-24T04:52:00.010Z,36.57
2023-02-24T04:54:29.758Z,36.73
2023-02-24T04:56:59.520Z,38.27
2023-02-24T04:59:29.127Z,34.27
2023-02-24T05:02:01.521Z,36.03
2023-02-24T05:04:31.862Z,36.00
2023-02-24T05:07:00.586Z,34.23
2023-02-24T05:09:30.292Z,34.03
2023-02-24T05:12:01.745Z,34.83
2023-02-24T05:14:31.085Z,35.97
2023-02-24T05:17:00.525Z,34.50
2023-02-24T05:19:46.334Z,34.97
2023-02-24T05:22:16.999Z,35.17
2023-02-24T05:24:48.010Z,33.93
2023-02-24T05:27:17.571Z,31.30
2023-02-24T05:29:45.853Z,31.80
2023-02-24T05:32:16.744Z,31.97
2023-02-24T05:34:44.986Z,35.43
2023-02-24T05:37:16.438Z,31.60
2023-02-24T05:39:44.410Z,30.73
2023-02-24T05:42:12.947Z,32.57
2023-02-24T05:44:42.249Z,35.90
2023-02-24T05:47:10.519Z,34.83
2023-02-24T05:49:38.938Z,32.17
2023-02-24T05:52:09.617Z,31.07
2023-02-24T05:54:40.386Z,32.53
2023-02-24T05:57:11.997Z,32.10
2023-02-24T05:59:42.322Z,31.03
2023-02-24T06:02:12.947Z,32.50
2023-02-24T06:04:51.212Z,33.53
2023-02-24T06:07:24.745Z,32.23
2023-02-24T06:09:56.578Z,32.90
2023-02-24T06:12:27.349Z,36.47
2023-02-24T06:14:58.143Z,33.40
2023-02-24T06:17:26.102Z,32.53
2023-02-24T06:19:55.308Z,30.97
2023-02-24T06:22:25.171Z,34.20
2023-02-24T06:24:55.392Z,33.27
2023-02-24T06:27:24.959Z,30.87
2023-02-24T06:29:54.925Z,32.40
2023-02-24T06:32:27.052Z,31.90
2023-02-24T06:34:57.224Z,32.20
2023-02-24T06:37:25.450Z,14.60
2023-02-24T06:39:53.433Z,13.53
2023-02-24T06:42:21.379Z,15.77
2023-02-24T06:44:50.425Z,14.33
2023-02-24T06:47:18.416Z,13.70
2023-02-24T06:49:47.964Z,14.87
2023-02-24T06:52:19.223Z,13.20
2023-02-24T06:54:49.733Z,14.57
2023-02-24T06:57:20.364Z,14.83
2023-02-24T06:59:48.999Z,14.17
2023-02-24T07:02:17.852Z,16.03
2023-02-24T07:04:47.680Z,17.50
2023-02-24T07:07:17.399Z,19.17
2023-02-24T07:09:45.756Z,12.23
2023-02-24T07:12:15.661Z,13.97
2023-02-24T07:14:44.099Z,18.40
2023-02-24T07:17:14.720Z,32.17
2023-02-24T07:19:42.759Z,29.47
2023-02-24T07:22:14.746Z,29.63
2023-02-24T07:24:46.268Z,30.43
2023-02-24T07:27:22.108Z,29.67
2023-02-24T07:29:52.922Z,30.23
2023-02-24T07:32:23.397Z,29.33
2023-02-24T07:34:51.461Z,30.27
2023-02-24T07:37:21.148Z,33.33
2023-02-24T07:39:49.173Z,35.23
2023-02-24T07:42:17.192Z,35.93
2023-02-24T07:44:46.710Z,32.37
2023-02-24T07:47:15.922Z,33.97
2023-02-24T07:49:45.273Z,39.47
2023-02-24T07:52:13.417Z,33.33
2023-02-24T07:54:43.194Z,29.90
2023-02-24T07:57:14.182Z,15.83
2023-02-24T07:59:47.637Z,15.80
2023-02-24T08:02:16.531Z,18.17
2023-02-24T08:04:50.073Z,17.33
2023-02-24T08:07:24.516Z,17.30
2023-02-24T08:10:12.258Z,14.93
2023-02-24T08:12:43.438Z,18.00
2023-02-24T08:15:21.928Z,16.40
2023-02-24T08:17:49.984Z,21.97
2023-02-24T08:20:25.995Z,16.37
2023-02-24T08:22:55.419Z,18.07
2023-02-24T08:25:36.504Z,17.47
2023-02-24T08:28:09.204Z,15.00
2023-02-24T08:30:40.910Z,17.43
2023-02-24T08:33:11.397Z,18.47
2023-02-24T08:35:45.082Z,14.90
2023-02-24T08:38:15.685Z,14.93
2023-02-24T08:40:52.513Z,19.33
2023-02-24T08:43:32.801Z,16.97
2023-02-24T08:46:06.559Z,27.33
2023-02-24T08:48:39.073Z,19.07
2023-02-24T08:51:11.669Z,29.60
2023-02-24T08:53:41.395Z,20.30
2023-02-24T08:56:13.631Z,20.47
2023-02-24T08:58:47.320Z,37.67
2023-02-24T09:01:24.421Z,37.83
2023-02-24T09:03:55.326Z,35.70
2023-02-24T09:06:27.623Z,35.60
2023-02-24T09:09:11.406Z,35.93
2023-02-24T09:11:44.255Z,41.10
2023-02-24T09:14:32.216Z,39.23
2023-02-24T09:17:03.810Z,38.10
2023-02-24T09:20:01.913Z,43.10
2023-02-24T09:22:57.300Z,24.60
2023-02-24T09:25:40.436Z,20.90
2023-02-24T09:28:17.404Z,19.70
2023-02-24T09:30:54.248Z,38.43
2023-02-24T09:33:25.853Z,41.50
2023-02-24T09:36:10.661Z,45.80
2023-02-24T09:38:59.740Z,42.40
2023-02-24T09:41:53.270Z,46.30
2023-02-24T09:44:29.583Z,44.03
2023-02-24T09:47:09.137Z,46.33
2023-02-24T09:49:47.810Z,45.30
2023-02-24T09:52:19.073Z,46.67
2023-02-24T09:55:14.659Z,47.37
2023-02-24T09:58:12.943Z,45.10
2023-02-24T10:00:51.842Z,50.03
2023-02-24T10:03:41.635Z,46.10
2023-02-24T10:06:20.850Z,50.60
2023-02-24T10:08:55.762Z,47.30
2023-02-24T10:11:33.866Z,51.03
2023-02-24T10:14:05.448Z,51.43
2023-02-24T10:17:08.376Z,46.97
2023-02-24T10:19:36.339Z,46.77
2023-02-24T10:22:23.163Z,53.70
2023-02-24T10:25:01.503Z,54.47
2023-02-24T10:27:39.532Z,48.23
2023-02-24T10:30:19.873Z,54.47
2023-02-24T10:32:58.820Z,46.97
2023-02-24T10:35:33.592Z,49.77
2023-02-24T10:38:05.367Z,49.23
2023-02-24T10:40:45.118Z,49.57
2023-02-24T10:43:19.513Z,50.77
2023-02-24T10:45:48.820Z,55.80
2023-02-24T10:48:40.403Z,50.20
2023-02-24T10:51:19.807Z,47.57
2023-02-24T10:54:10.138Z,44.50
2023-02-24T10:56:44.569Z,43.87
2023-02-24T10:59:41.226Z,47.23
2023-02-24T11:02:32.745Z,46.10
2023-02-24T11:05:27.252Z,50.53
2023-02-24T11:08:09.532Z,50.00
2023-02-24T11:10:53.267Z,53.17
2023-02-24T11:13:39.324Z,51.00
2023-02-24T11:16:28.308Z,51.30
2023-02-24T11:18:58.259Z,49.47
2023-02-24T11:21:28.966Z,47.30
2023-02-24T11:24:02.717Z,47.27
2023-02-24T11:26:37.031Z,48.37
2023-02-24T11:29:32.356Z,50.85
2023-02-24T11:32:15.488Z,45.33
2023-02-24T11:34:53.617Z,49.25
2023-02-24T11:37:36.051Z,47.80
2023-02-24T11:40:09.505Z,47.37
2023-02-24T11:42:42.036Z,46.08
2023-02-24T11:45:22.882Z,47.53
2023-02-24T11:47:56.380Z,47.27
2023-02-24T11:50:34.007Z,47.28
2023-02-24T11:53:09.011Z,38.07
2023-02-24T11:55:43.120Z,36.83
2023-02-24T11:58:21.004Z,31.47
2023-02-24T12:00:55.946Z,35.87
2023-02-24T12:03:30.843Z,27.17
2023-02-24T12:06:09.096Z,27.27
2023-02-24T12:08:40.967Z,32.50
2023-02-24T12:11:15.616Z,27.95
2023-02-24T12:13:51.227Z,33.88
2023-02-24T12:16:24.050Z,32.97
2023-02-24T12:18:59.147Z,30.88
2023-02-24T12:21:33.848Z,37.47
2023-02-24T12:24:08.499Z,29.23
2023-02-24T12:26:43.631Z,27.93
2023-02-24T12:29:42.366Z,33.00
2023-02-24T12:32:21.043Z,39.33
2023-02-24T12:34:57.984Z,25.63
2023-02-24T12:37:50.608Z,39.30
2023-02-24T12:40:32.607Z,29.10
2023-02-24T12:43:11.057Z,42.55
2023-02-24T12:45:50.180Z,30.98
2023-02-24T12:48:33.569Z,29.93
2023-02-24T12:51:08.619Z,28.00
2023-02-24T12:53:47.388Z,31.30
2023-02-24T12:56:22.796Z,24.77
2023-02-24T12:58:54.354Z,26.05
2023-02-24T13:01:28.820Z,24.15
2023-02-24T13:04:18.988Z,38.20
2023-02-24T13:06:59.468Z,23.83
2023-02-24T13:09:35.846Z,28.33
2023-02-24T13:12:12.369Z,23.77
2023-02-24T13:14:41.971Z,24.80
2023-02-24T13:17:22.459Z,25.45
2023-02-24T13:19:53.061Z,29.05
2023-02-24T13:22:25.248Z,22.45
2023-02-24T13:25:18.587Z,23.90
2023-02-24T13:27:57.694Z,20.23
2023-02-24T13:30:30.485Z,29.40
2023-02-24T13:33:05.690Z,29.40
2023-02-24T13:35:37.436Z,33.75
2023-02-24T13:38:24.002Z,42.20
2023-02-24T13:40:52.530Z,36.63
2023-02-24T13:43:28.571Z,31.95
2023-02-24T13:46:00.624Z,36.28
2023-02-24T13:48:46.370Z,34.63
2023-02-24T13:51:31.195Z,30.17
2023-02-24T13:54:12.748Z,36.97
2023-02-24T13:56:45.633Z,36.63
2023-02-24T13:59:42.588Z,33.47
2023-02-24T14:02:18.278Z,25.90
2023-02-24T14:04:49.771Z,36.33
2023-02-24T14:07:23.143Z,27.35
2023-02-24T14:09:55.387Z,27.55
2023-02-24T14:12:26.800Z,32.20
2023-02-24T14:14:57.510Z,34.13
2023-02-24T14:17:28.762Z,32.72
2023-02-24T14:20:08.820Z,36.20
2023-02-24T14:22:44.611Z,31.95
2023-02-24T14:25:15.829Z,28.80
2023-02-24T14:27:45.906Z,37.30
2023-02-24T14:30:26.000Z,38.78
2023-02-24T14:32:54.510Z,39.50
2023-02-24T14:35:28.800Z,37.42
2023-02-24T14:37:57.639Z,30.88
2023-02-24T14:40:26.052Z,26.85
2023-02-24T14:42:57.232Z,25.23
2023-02-24T14:45:28.806Z,23.42
2023-02-24T14:47:57.832Z,22.83
2023-02-24T14:50:29.014Z,21.00
2023-02-24T14:53:01.380Z,20.98
2023-02-24T14:55:31.249Z,22.35
2023-02-24T14:58:03.078Z,27.52
2023-02-24T15:00:36.363Z,24.30
2023-02-24T15:03:12.453Z,25.98
2023-02-24T15:05:45.940Z,23.60
2023-02-24T15:08:28.396Z,22.65
2023-02-24T15:10:56.732Z,24.75
2023-02-24T15:13:31.419Z,24.27
2023-02-24T15:16:07.180Z,24.00
2023-02-24T15:18:35.261Z,22.25
2023-02-24T15:21:05.449Z,24.05
2023-02-24T15:23:35.172Z,22.25
2023-02-24T15:26:04.524Z,22.67
2023-02-24T15:28:34.828Z,24.77
2023-02-24T15:31:09.793Z,24.53
2023-02-24T15:33:40.410Z,24.13
2023-02-24T15:36:12.447Z,21.57
2023-02-24T15:38:42.437Z,25.97
2023-02-24T15:41:12.101Z,20.47
2023-02-24T15:43:47.355Z,25.23
2023-02-24T15:46:26.228Z,21.07
2023-02-24T15:48:56.386Z,22.53
2023-02-24T15:51:33.311Z,21.83
2023-02-24T15:54:02.486Z,28.37
2023-02-24T15:56:32.958Z,24.43
2023-02-24T15:59:02.693Z,22.90
2023-02-24T16:01:32.661Z,22.08
2023-02-24T16:04:01.159Z,24.35
2023-02-24T16:06:29.895Z,23.93
2023-02-24T16:08:59.147Z,24.93
2023-02-24T16:11:32.789Z,24.45
2023-02-24T16:14:01.675Z,26.40
2023-02-24T16:16:33.363Z,22.50
2023-02-24T16:19:01.466Z,23.37
2023-02-24T16:21:30.400Z,24.23
2023-02-24T16:23:58.368Z,27.52
2023-02-24T16:26:26.489Z,22.98
2023-02-24T16:28:56.589Z,24.90
2023-02-24T16:31:26.116Z,25.55
2023-02-24T16:33:56.463Z,39.90
2023-02-24T16:36:26.286Z,44.05
2023-02-24T16:38:54.574Z,45.05
2023-02-24T16:41:23.464Z,46.22
2023-02-24T16:43:51.759Z,41.78
2023-02-24T16:46:22.988Z,45.45
2023-02-24T16:48:53.347Z,44.80
2023-02-24T16:51:23.437Z,44.25
2023-02-24T16:53:51.383Z,47.80
2023-02-24T16:56:19.580Z,46.80
2023-02-24T16:58:47.704Z,45.33
2023-02-24T17:01:21.122Z,46.23
2023-02-24T17:03:51.342Z,48.83
2023-02-24T17:06:21.949Z,50.33
2023-02-24T17:08:51.966Z,150.83
2023-02-24T17:11:21.928Z,26.90
2023-02-24T17:13:49.930Z,33.93
2023-02-24T17:16:18.025Z,27.10
2023-02-24T17:18:46.064Z,26.37
2023-02-24T17:21:15.254Z,25.50
2023-02-24T17:23:43.702Z,24.87
2023-02-24T17:26:15.928Z,26.20
2023-02-24T17:28:44.118Z,33.50
2023-02-24T17:31:12.518Z,38.17
2023-02-24T17:33:41.010Z,35.77
2023-02-24T17:36:09.083Z,30.03
2023-02-24T17:38:37.109Z,31.40
2023-02-24T17:41:05.198Z,30.03
2023-02-24T17:43:34.582Z,29.23
2023-02-24T17:46:06.635Z,29.73
2023-02-24T17:48:35.517Z,32.03
2023-02-24T17:51:03.500Z,29.87
2023-02-24T17:53:32.222Z,27.60
2023-02-24T17:56:04.813Z,27.40
2023-02-24T17:58:34.698Z,29.90
2023-02-24T18:01:03.392Z,30.53
2023-02-24T18:03:32.011Z,30.87
2023-02-24T18:06:00.972Z,29.23
2023-02-24T18:08:30.505Z,31.23
2023-02-24T18:10:59.988Z,29.87
2023-02-24T18:13:28.458Z,31.23
2023-02-24T18:15:58.384Z,28.03
2023-02-24T18:18:27.107Z,31.97
2023-02-24T18:21:00.676Z,29.60
2023-02-24T18:23:28.716Z,45.67
2023-02-24T18:25:56.751Z,32.10
2023-02-24T18:28:24.694Z,30.13
2023-02-24T18:30:52.784Z,30.47
2023-02-24T18:33:22.353Z,34.63
2023-02-24T18:35:58.430Z,31.03
2023-02-24T18:38:26.543Z,30.53
2023-02-24T18:41:02.360Z,25.93
2023-02-24T18:43:31.217Z,32.57
2023-02-24T18:46:00.202Z,27.23
2023-02-24T18:48:30.371Z,30.53
2023-02-24T18:50:59.588Z,28.50
2023-02-24T18:53:29.482Z,27.13
2023-02-24T18:56:00.789Z,29.67
2023-02-24T18:58:29.388Z,26.77
2023-02-24T19:00:57.974Z,27.27
2023-02-24T19:03:26.082Z,24.47
2023-02-24T19:05:55.411Z,26.83
2023-02-24T19:08:23.386Z,25.30
2023-02-24T19:10:51.369Z,24.53
2023-02-24T19:13:19.329Z,24.53
2023-02-24T19:15:48.404Z,25.67
2023-02-24T19:18:17.015Z,23.83
2023-02-24T19:20:45.277Z,27.33
2023-02-24T19:23:14.695Z,25.37
2023-02-24T19:25:42.657Z,22.67
2023-02-24T19:28:10.632Z,26.20
2023-02-24T19:30:39.965Z,26.97
2023-02-24T19:33:09.635Z,22.17
2023-02-24T19:35:41.033Z,46.27
2023-02-24T19:38:09.052Z,49.67
2023-02-24T19:40:38.404Z,48.93
2023-02-24T19:43:06.734Z,48.63
2023-02-24T19:45:34.944Z,51.33
2023-02-24T19:48:02.908Z,47.30
2023-02-24T19:50:30.954Z,48.13
2023-02-24T19:52:58.937Z,52.23
2023-02-24T19:55:26.931Z,49.33
2023-02-24T19:57:56.758Z,49.00
2023-02-24T20:00:25.066Z,49.27
2023-02-24T20:02:53.351Z,49.77
2023-02-24T20:05:21.463Z,23.73
2023-02-24T20:07:49.472Z,27.30
2023-02-24T20:10:18.292Z,26.20
2023-02-24T20:12:46.785Z,23.77
2023-02-24T20:15:18.489Z,27.97
2023-02-24T20:17:48.895Z,23.83
2023-02-24T20:20:17.908Z,26.30
2023-02-24T20:22:45.894Z,26.60
2023-02-24T20:25:15.385Z,24.20
2023-02-24T20:27:43.424Z,23.00
2023-02-24T20:30:12.709Z,22.90
2023-02-24T20:32:42.267Z,24.17
2023-02-24T20:35:11.290Z,24.80
2023-02-24T20:37:39.336Z,24.10
2023-02-24T20:40:09.034Z,26.17
2023-02-24T20:42:37.007Z,24.50
2023-02-24T20:45:05.452Z,23.10
2023-02-24T20:47:33.518Z,22.70
2023-02-24T20:50:03.207Z,25.17
2023-02-24T20:52:31.217Z,24.90
2023-02-24T20:54:59.339Z,25.73
2023-02-24T20:57:27.344Z,25.47
2023-02-24T21:00:03.534Z,23.80
2023-02-24T21:02:31.955Z,25.23
2023-02-24T21:05:00.017Z,23.50
2023-02-24T21:07:29.403Z,22.90
2023-02-24T21:09:57.409Z,21.03
2023-02-24T21:12:25.463Z,22.77
2023-02-24T21:14:53.444Z,24.53
2023-02-24T21:17:21.499Z,26.23
2023-02-24T21:19:49.830Z,26.33
2023-02-24T21:22:17.917Z,25.67
2023-02-24T21:24:47.364Z,23.00
2023-02-24T21:27:15.341Z,21.73
2023-02-24T21:29:44.650Z,23.33
2023-02-24T21:32:14.369Z,20.90
2023-02-24T21:34:42.587Z,24.73
2023-02-24T21:37:10.563Z,24.40
2023-02-24T21:39:38.603Z,22.60
2023-02-24T21:42:08.468Z,23.53
2023-02-24T21:44:36.413Z,23.03
2023-02-24T21:47:04.683Z,22.13
2023-02-24T21:49:33.185Z,22.73
2023-02-24T21:52:01.562Z,21.43
2023-02-24T21:54:30.881Z,23.53
2023-02-24T21:56:58.844Z,24.77
2023-02-24T21:59:28.215Z,22.73
2023-02-24T22:01:56.278Z,24.43
2023-02-24T22:04:24.657Z,21.63
2023-02-24T22:06:52.720Z,22.50
2023-02-24T22:09:20.792Z,23.40
2023-02-24T22:11:49.708Z,23.47
2023-02-24T22:14:18.286Z,23.87
2023-02-24T22:16:47.633Z,25.80
2023-02-24T22:19:15.621Z,23.23
2023-02-24T22:21:43.595Z,23.57
2023-02-24T22:24:14.043Z,23.40
2023-02-24T22:26:42.592Z,20.90
2023-02-24T22:29:11.006Z,22.70
2023-02-24T22:31:39.692Z,23.90
2023-02-24T22:34:09.267Z,24.30
2023-02-24T22:36:38.419Z,23.80
2023-02-24T22:39:09.274Z,23.03
2023-02-24T22:41:38.187Z,23.97
2023-02-24T22:44:06.756Z,22.57
2023-02-24T22:46:36.882Z,22.80
2023-02-24T22:49:05.288Z,23.50
2023-02-24T22:51:34.710Z,25.13
2023-02-24T22:54:02.734Z,24.13
2023-02-24T22:56:31.562Z,23.57
2023-02-24T22:59:00.598Z,21.50
2023-02-24T23:01:30.639Z,21.97
2023-02-24T23:04:01.303Z,22.73
2023-02-24T23:06:30.366Z,25.30
2023-02-24T23:09:01.588Z,20.83
2023-02-24T23:11:32.039Z,20.47
2023-02-24T23:14:02.185Z,20.47
2023-02-24T23:16:33.049Z,42.47
2023-02-24T23:19:04.311Z,44.03
2023-02-24T23:21:34.895Z,44.77
2023-02-24T23:24:04.885Z,44.83
2023-02-24T23:26:34.212Z,44.50
2023-02-24T23:29:02.327Z,47.13
2023-02-24T23:31:30.793Z,42.97
2023-02-24T23:33:59.521Z,44.67
2023-02-24T23:36:27.773Z,42.67
2023-02-24T23:38:57.320Z,40.30
2023-02-24T23:41:26.712Z,39.67
2023-02-24T23:43:54.833Z,22.83
2023-02-24T23:46:23.681Z,22.93
2023-02-24T23:48:53.589Z,21.97
2023-02-24T23:51:21.793Z,23.47
2023-02-24T23:53:49.960Z,22.23
2023-02-24T23:56:19.566Z,21.00
2023-02-24T23:58:52.949Z,22.53
